sensor_id;sensor_type;location;lat;lon;timestamp;pressure;altitude;pressure_sealevel;temperature;humidity
29909;BME280;36247;51.952;6.146;2023-03-04T00:01:24;102488.25;;;5.30;100.00
29909;BME280;36247;51.952;6.146;2023-03-04T00:03:49;102480.47;;;5.32;100.00
29909;BME280;36247;51.952;6.146;2023-03-04T00:06:15;102490.53;;;5.39;100.00
29909;BME280;36247;51.952;6.146;2023-03-04T00:08:40;102486.13;;;5.25;100.00
29909;BME280;36247;51.952;6.146;2023-03-04T00:11:06;102500.09;;;5.24;100.00
29909;BME280;36247;51.952;6.146;2023-03-04T00:13:31;102488.28;;;5.17;100.00
29909;BME280;36247;51.952;6.146;2023-03-04T00:15:57;102497.69;;;5.27;100.00
29909;BME280;36247;51.952;6.146;2023-03-04T00:18:22;102494.13;;;5.26;100.00
29909;BME280;36247;51.952;6.146;2023-03-04T00:20:47;102495.28;;;5.17;100.00
29909;BME280;36247;51.952;6.146;2023-03-04T00:23:14;102493.78;;;5.35;100.00
29909;BME280;36247;51.952;6.146;2023-03-04T00:25:40;102487.31;;;5.15;100.00
29909;BME280;36247;51.952;6.146;2023-03-04T00:28:05;102484.72;;;5.30;100.00
29909;BME280;36247;51.952;6.146;2023-03-04T00:30:31;102488.25;;;5.30;100.00
29909;BME280;36247;51.952;6.146;2023-03-04T00:32:56;102481.91;;;5.27;100.00
29909;BME280;36247;51.952;6.146;2023-03-04T00:35:22;102486.59;;;5.33;100.00
29909;BME280;36247;51.952;6.146;2023-03-04T00:37:48;102487.34;;;5.30;100.00
29909;BME280;36247;51.952;6.146;2023-03-04T00:40:15;102485.63;;;5.30;100.00
29909;BME280;36247;51.952;6.146;2023-03-04T00:42:40;102484.63;;;5.28;100.00
29909;BME280;36247;51.952;6.146;2023-03-04T00:45:06;102479.06;;;5.24;100.00
29909;BME280;36247;51.952;6.146;2023-03-04T00:47:32;102483.31;;;5.22;100.00
29909;BME280;36247;51.952;6.146;2023-03-04T00:49:57;102480.47;;;5.32;100.00
29909;BME280;36247;51.952;6.146;2023-03-04T00:52:22;102481.63;;;5.09;100.00
29909;BME280;36247;51.952;6.146;2023-03-04T00:54:48;102479.72;;;5.20;100.00
29909;BME280;36247;51.952;6.146;2023-03-04T00:57:13;102473.72;;;5.22;100.00
29909;BME280;36247;51.952;6.146;2023-03-04T00:59:39;102480.69;;;5.22;100.00
29909;BME280;36247;51.952;6.146;2023-03-04T01:02:05;102474.25;;;5.17;100.00
29909;BME280;36247;51.952;6.146;2023-03-04T01:04:31;102484.63;;;5.00;100.00
29909;BME280;36247;51.952;6.146;2023-03-04T01:06:58;102477.69;;;5.16;100.00
29909;BME280;36247;51.952;6.146;2023-03-04T01:09:24;102475.78;;;5.13;100.00
29909;BME280;36247;51.952;6.146;2023-03-04T01:11:51;102481.59;;;5.22;100.00
29909;BME280;36247;51.952;6.146;2023-03-04T01:14:17;102479.28;;;5.27;100.00
29909;BME280;36247;51.952;6.146;2023-03-04T01:16:42;102481.88;;;5.12;100.00
29909;BME280;36247;51.952;6.146;2023-03-04T01:19:08;102473.63;;;5.21;100.00
29909;BME280;36247;51.952;6.146;2023-03-04T01:21:35;102482.06;;;5.15;100.00
29909;BME280;36247;51.952;6.146;2023-03-04T01:24:00;102478.22;;;5.10;100.00
29909;BME280;36247;51.952;6.146;2023-03-04T01:26:26;102471.81;;;5.20;100.00
29909;BME280;36247;51.952;6.146;2023-03-04T01:28:51;102470.72;;;5.16;100.00
29909;BME280;36247;51.952;6.146;2023-03-04T01:31:17;102468.59;;;5.10;100.00
29909;BME280;36247;51.952;6.146;2023-03-04T01:33:43;102462.34;;;5.08;100.00
29909;BME280;36247;51.952;6.146;2023-03-04T01:36:08;102468.59;;;5.10;100.00
29909;BME280;36247;51.952;6.146;2023-03-04T01:38:34;102468.03;;;5.01;100.00
29909;BME280;36247;51.952;6.146;2023-03-04T01:41:00;102457.91;;;5.07;100.00
29909;BME280;36247;51.952;6.146;2023-03-04T01:43:27;102466.28;;;5.15;100.00
29909;BME280;36247;51.952;6.146;2023-03-04T01:45:54;102455.38;;;5.09;100.00
29909;BME280;36247;51.952;6.146;2023-03-04T01:48:40;102455.47;;;5.10;100.00
29909;BME280;36247;51.952;6.146;2023-03-04T01:51:11;102450.66;;;5.03;100.00
29909;BME280;36247;51.952;6.146;2023-03-04T01:53:38;102452.91;;;4.97;100.00
29909;BME280;36247;51.952;6.146;2023-03-04T01:56:19;102450.66;;;5.03;100.00
29909;BME280;36247;51.952;6.146;2023-03-04T01:59:06;102450.56;;;5.02;100.00
29909;BME280;36247;51.952;6.146;2023-03-04T02:01:32;102451.19;;;4.98;100.00
29909;BME280;36247;51.952;6.146;2023-03-04T02:03:57;102451.59;;;4.90;100.00
29909;BME280;36247;51.952;6.146;2023-03-04T02:06:23;102439.56;;;4.94;100.00
29909;BME280;36247;51.952;6.146;2023-03-04T02:08:48;102436.50;;;5.01;100.00
29909;BME280;36247;51.952;6.146;2023-03-04T02:11:14;102442.69;;;5.02;100.00
29909;BME280;36247;51.952;6.146;2023-03-04T02:13:40;102438.72;;;5.08;100.00
29909;BME280;36247;51.952;6.146;2023-03-04T02:16:06;102438.72;;;5.08;100.00
29909;BME280;36247;51.952;6.146;2023-03-04T02:18:31;102430.91;;;5.10;100.00
29909;BME280;36247;51.952;6.146;2023-03-04T02:21:18;102426.75;;;4.99;100.00
29909;BME280;36247;51.952;6.146;2023-03-04T02:23:56;102429.47;;;5.00;100.00
29909;BME280;36247;51.952;6.146;2023-03-04T02:26:29;102425.88;;;4.85;100.00
29909;BME280;36247;51.952;6.146;2023-03-04T02:28:57;102415.66;;;4.89;100.00
29909;BME280;36247;51.952;6.146;2023-03-04T02:33:49;102413.53;;;4.97;100.00
29909;BME280;36247;51.952;6.146;2023-03-04T02:36:15;102418.97;;;5.00;100.00
29909;BME280;36247;51.952;6.146;2023-03-04T02:38:41;102416.25;;;4.99;100.00
29909;BME280;36247;51.952;6.146;2023-03-04T02:41:11;102415.31;;;4.98;100.00
29909;BME280;36247;51.952;6.146;2023-03-04T02:43:39;102420.38;;;4.95;100.00
29909;BME280;36247;51.952;6.146;2023-03-04T02:46:05;102411.28;;;5.03;100.00
29909;BME280;36247;51.952;6.146;2023-03-04T02:48:30;102412.88;;;5.01;100.00
29909;BME280;36247;51.952;6.146;2023-03-04T02:50:56;102413.53;;;4.97;100.00
29909;BME280;36247;51.952;6.146;2023-03-04T02:53:22;102408.78;;;4.91;100.00
29909;BME280;36247;51.952;6.146;2023-03-04T02:55:50;102409.91;;;4.82;100.00
29909;BME280;36247;51.952;6.146;2023-03-04T02:58:17;102409.81;;;4.80;100.00
29909;BME280;36247;51.952;6.146;2023-03-04T03:00:42;102397.53;;;4.94;100.00
29909;BME280;36247;51.952;6.146;2023-03-04T03:03:08;102403.34;;;4.88;100.00
29909;BME280;36247;51.952;6.146;2023-03-04T03:05:35;102399.19;;;4.92;100.00
29909;BME280;36247;51.952;6.146;2023-03-04T03:08:01;102401.72;;;4.90;100.00
29909;BME280;36247;51.952;6.146;2023-03-04T03:10:27;102393.72;;;4.89;100.00
29909;BME280;36247;51.952;6.146;2023-03-04T03:12:53;102391.28;;;4.92;100.00
29909;BME280;36247;51.952;6.146;2023-03-04T03:15:20;102396.13;;;4.99;100.00
29909;BME280;36247;51.952;6.146;2023-03-04T03:17:45;102384.31;;;4.92;100.00
29909;BME280;36247;51.952;6.146;2023-03-04T03:20:13;102392.00;;;4.89;100.00
29909;BME280;36247;51.952;6.146;2023-03-04T03:22:39;102388.16;;;4.98;100.00
29909;BME280;36247;51.952;6.146;2023-03-04T03:25:06;102382.34;;;4.88;100.00
29909;BME280;36247;51.952;6.146;2023-03-04T03:27:31;102383.31;;;4.90;100.00
29909;BME280;36247;51.952;6.146;2023-03-04T03:29:57;102376.81;;;4.84;100.00
29909;BME280;36247;51.952;6.146;2023-03-04T03:32:22;102377.59;;;4.83;100.00
29909;BME280;36247;51.952;6.146;2023-03-04T03:34:49;102375.50;;;4.77;100.00
29909;BME280;36247;51.952;6.146;2023-03-04T03:37:16;102367.81;;;4.80;100.00
29909;BME280;36247;51.952;6.146;2023-03-04T03:39:42;102370.91;;;4.88;100.00
29909;BME280;36247;51.952;6.146;2023-03-04T03:42:08;102365.28;;;4.82;100.00
29909;BME280;36247;51.952;6.146;2023-03-04T03:44:33;102374.38;;;4.87;100.00
29909;BME280;36247;51.952;6.146;2023-03-04T03:46:59;102363.06;;;4.74;100.00
29909;BME280;36247;51.952;6.146;2023-03-04T03:49:24;102374.69;;;4.78;100.00
29909;BME280;36247;51.952;6.146;2023-03-04T03:51:50;102375.78;;;4.82;100.00
29909;BME280;36247;51.952;6.146;2023-03-04T03:54:16;102371.88;;;4.75;100.00
29909;BME280;36247;51.952;6.146;2023-03-04T03:56:41;102370.81;;;4.86;100.00
29909;BME280;36247;51.952;6.146;2023-03-04T03:59:07;102374.75;;;4.93;100.00
29909;BME280;36247;51.952;6.146;2023-03-04T04:01:32;102371.94;;;4.90;100.00
29909;BME280;36247;51.952;6.146;2023-03-04T04:03:59;102376.34;;;4.91;100.00
29909;BME280;36247;51.952;6.146;2023-03-04T04:06:25;102376.34;;;4.91;100.00
29909;BME280;36247;51.952;6.146;2023-03-04T04:08:50;102377.41;;;4.80;100.00
29909;BME280;36247;51.952;6.146;2023-03-04T04:11:16;102377.50;;;4.81;100.00
29909;BME280;36247;51.952;6.146;2023-03-04T04:13:42;102374.38;;;4.87;100.00
29909;BME280;36247;51.952;6.146;2023-03-04T04:16:08;102369.53;;;4.80;100.00
29909;BME280;36247;51.952;6.146;2023-03-04T04:18:34;102370.63;;;4.83;100.00
29909;BME280;36247;51.952;6.146;2023-03-04T04:20:59;102371.00;;;4.89;100.00
29909;BME280;36247;51.952;6.146;2023-03-04T04:23:25;102369.81;;;4.84;100.00
29909;BME280;36247;51.952;6.146;2023-03-04T04:25:53;102369.31;;;4.90;100.00
29909;BME280;36247;51.952;6.146;2023-03-04T04:28:19;102370.72;;;4.85;100.00
29909;BME280;36247;51.952;6.146;2023-03-04T04:30:44;102377.75;;;4.71;100.00
29909;BME280;36247;51.952;6.146;2023-03-04T04:33:10;102367.53;;;4.75;100.00
29909;BME280;36247;51.952;6.146;2023-03-04T04:35:35;102370.34;;;4.79;100.00
29909;BME280;36247;51.952;6.146;2023-03-04T04:38:03;102365.28;;;4.82;100.00
29909;BME280;36247;51.952;6.146;2023-03-04T04:40:29;102369.72;;;4.83;100.00
29909;BME280;36247;51.952;6.146;2023-03-04T04:42:54;102375.69;;;4.80;100.00
29909;BME280;36247;51.952;6.146;2023-03-04T04:45:21;102376.50;;;4.79;100.00
29909;BME280;36247;51.952;6.146;2023-03-04T04:47:52;102374.69;;;4.78;100.00
29909;BME280;36247;51.952;6.146;2023-03-04T04:50:18;102380.13;;;4.81;100.00
29909;BME280;36247;51.952;6.146;2023-03-04T04:52:44;102377.03;;;4.73;100.00
29909;BME280;36247;51.952;6.146;2023-03-04T04:55:09;102376.94;;;4.72;100.00
29909;BME280;36247;51.952;6.146;2023-03-04T04:57:35;102377.22;;;4.76;100.00
29909;BME280;36247;51.952;6.146;2023-03-04T05:00:01;102376.84;;;4.70;100.00
29909;BME280;36247;51.952;6.146;2023-03-04T05:02:26;102379.56;;;4.72;100.00
29909;BME280;36247;51.952;6.146;2023-03-04T05:04:52;102381.91;;;4.67;100.00
29909;BME280;36247;51.952;6.146;2023-03-04T05:07:17;102383.19;;;4.74;100.00
29909;BME280;36247;51.952;6.146;2023-03-04T05:09:43;102384.53;;;4.67;100.00
29909;BME280;36247;51.952;6.146;2023-03-04T05:12:08;102382.19;;;4.72;100.00
29909;BME280;36247;51.952;6.146;2023-03-04T05:14:34;102380.38;;;4.71;100.00
29909;BME280;36247;51.952;6.146;2023-03-04T05:16:59;102378.84;;;4.74;100.00
29909;BME280;36247;51.952;6.146;2023-03-04T05:19:24;102380.31;;;4.84;100.00
29909;BME280;36247;51.952;6.146;2023-03-04T05:21:50;102381.66;;;4.77;100.00
29909;BME280;36247;51.952;6.146;2023-03-04T05:24:15;102380.19;;;4.68;100.00
29909;BME280;36247;51.952;6.146;2023-03-04T05:26:41;102386.41;;;4.70;100.00
29909;BME280;36247;51.952;6.146;2023-03-04T05:29:06;102382.91;;;4.69;100.00
29909;BME280;36247;51.952;6.146;2023-03-04T05:31:32;102377.47;;;4.66;100.00
29909;BME280;36247;51.952;6.146;2023-03-04T05:33:57;102377.47;;;4.66;100.00
29909;BME280;36247;51.952;6.146;2023-03-04T05:36:22;102373.00;;;4.65;100.00
29909;BME280;36247;51.952;6.146;2023-03-04T05:38:48;102374.50;;;4.75;100.00
29909;BME280;36247;51.952;6.146;2023-03-04T05:41:13;102375.22;;;4.72;100.00
29909;BME280;36247;51.952;6.146;2023-03-04T05:43:39;102379.38;;;4.69;100.00
29909;BME280;36247;51.952;6.146;2023-03-04T05:46:08;102374.31;;;4.72;100.00
29909;BME280;36247;51.952;6.146;2023-03-04T05:48:37;102383.72;;;4.68;100.00
29909;BME280;36247;51.952;6.146;2023-03-04T05:51:03;102383.28;;;4.75;100.00
29909;BME280;36247;51.952;6.146;2023-03-04T05:53:28;102382.47;;;4.76;100.00
29909;BME280;36247;51.952;6.146;2023-03-04T05:55:54;102388.63;;;4.77;100.00
29909;BME280;36247;51.952;6.146;2023-03-04T05:58:19;102390.97;;;4.72;100.00
29909;BME280;36247;51.952;6.146;2023-03-04T06:00:45;102391.56;;;4.68;100.00
29909;BME280;36247;51.952;6.146;2023-03-04T06:03:19;102391.38;;;4.65;100.00
29909;BME280;36247;51.952;6.146;2023-03-04T06:05:46;102391.47;;;4.67;100.00
29909;BME280;36247;51.952;6.146;2023-03-04T06:08:12;102387.97;;;4.66;100.00
29909;BME280;36247;51.952;6.146;2023-03-04T06:10:39;102388.16;;;4.69;100.00
29909;BME280;36247;51.952;6.146;2023-03-04T06:13:05;102387.53;;;4.73;100.00
29909;BME280;36247;51.952;6.146;2023-03-04T06:15:31;102390.25;;;4.75;100.00
29909;BME280;36247;51.952;6.146;2023-03-04T06:17:56;102385.72;;;4.72;100.00
29909;BME280;36247;51.952;6.146;2023-03-04T06:20:22;102386.53;;;4.71;100.00
29909;BME280;36247;51.952;6.146;2023-03-04T06:22:47;102391.38;;;4.65;100.00
29909;BME280;36247;51.952;6.146;2023-03-04T06:25:13;102396.94;;;4.70;100.00
29909;BME280;36247;51.952;6.146;2023-03-04T06:27:39;102394.31;;;4.70;100.00
29909;BME280;36247;51.952;6.146;2023-03-04T06:30:04;102396.53;;;4.64;100.00
29909;BME280;36247;51.952;6.146;2023-03-04T06:32:30;102396.72;;;4.67;100.00
29909;BME280;36247;51.952;6.146;2023-03-04T06:34:56;102401.09;;;4.66;100.00
29909;BME280;36247;51.952;6.146;2023-03-04T06:37:21;102400.28;;;4.67;100.00
29909;BME280;36247;51.952;6.146;2023-03-04T06:39:47;102408.88;;;4.65;100.00
29909;BME280;36247;51.952;6.146;2023-03-04T06:42:12;102401.78;;;4.64;100.00
29909;BME280;36247;51.952;6.146;2023-03-04T06:44:38;102404.31;;;4.62;100.00
29909;BME280;36247;51.952;6.146;2023-03-04T06:47:03;102406.34;;;4.66;100.00
29909;BME280;36247;51.952;6.146;2023-03-04T06:49:29;102398.38;;;4.65;100.00
29909;BME280;36247;51.952;6.146;2023-03-04T06:51:54;102400.28;;;4.67;100.00
29909;BME280;36247;51.952;6.146;2023-03-04T06:54:20;102399.47;;;4.68;100.00
29909;BME280;36247;51.952;6.146;2023-03-04T06:56:45;102398.56;;;4.68;100.00
29909;BME280;36247;51.952;6.146;2023-03-04T06:59:11;102403.81;;;4.68;100.00
29909;BME280;36247;51.952;6.146;2023-03-04T07:01:37;102410.78;;;4.67;100.00
29909;BME280;36247;51.952;6.146;2023-03-04T07:04:02;102404.72;;;4.68;100.00
29909;BME280;36247;51.952;6.146;2023-03-04T07:06:28;102409.25;;;4.71;100.00
29909;BME280;36247;51.952;6.146;2023-03-04T07:08:54;102407.94;;;4.64;100.00
29909;BME280;36247;51.952;6.146;2023-03-04T07:11:20;102414.00;;;4.76;100.00
29909;BME280;36247;51.952;6.146;2023-03-04T07:13:47;102411.13;;;4.87;100.00
29909;BME280;36247;51.952;6.146;2023-03-04T07:16:15;102406.78;;;4.87;100.00
29909;BME280;36247;51.952;6.146;2023-03-04T07:18:42;102408.09;;;4.81;100.00
29909;BME280;36247;51.952;6.146;2023-03-04T07:21:07;102412.72;;;4.85;100.00
29909;BME280;36247;51.952;6.146;2023-03-04T07:23:34;102412.53;;;4.82;100.00
29909;BME280;36247;51.952;6.146;2023-03-04T07:26:00;102412.03;;;4.87;100.00
29909;BME280;36247;51.952;6.146;2023-03-04T07:28:26;102408.69;;;4.90;100.00
29909;BME280;36247;51.952;6.146;2023-03-04T07:30:51;102408.94;;;4.80;100.00
29909;BME280;36247;51.952;6.146;2023-03-04T07:33:17;102416.47;;;4.88;100.00
29909;BME280;36247;51.952;6.146;2023-03-04T07:35:42;102423.28;;;5.00;100.00
29909;BME280;36247;51.952;6.146;2023-03-04T07:38:08;102410.81;;;5.10;100.00
29909;BME280;36247;51.952;6.146;2023-03-04T07:40:34;102427.06;;;5.18;100.00
29909;BME280;36247;51.952;6.146;2023-03-04T07:42:59;102413.66;;;5.14;100.00
29909;BME280;36247;51.952;6.146;2023-03-04T07:45:26;102412.81;;;5.15;100.00
29909;BME280;36247;51.952;6.146;2023-03-04T07:47:52;102406.50;;;5.26;100.00
29909;BME280;36247;51.952;6.146;2023-03-04T07:50:18;102410.66;;;5.22;100.00
29909;BME280;36247;51.952;6.146;2023-03-04T07:52:46;102412.56;;;5.25;100.00
29909;BME280;36247;51.952;6.146;2023-03-04T07:55:13;102416.00;;;5.39;100.00
29909;BME280;36247;51.952;6.146;2023-03-04T07:57:40;102413.97;;;5.48;100.00
29909;BME280;36247;51.952;6.146;2023-03-04T08:00:07;102406.88;;;5.62;100.00
29909;BME280;36247;51.952;6.146;2023-03-04T08:02:38;102414.25;;;5.53;100.00
29909;BME280;36247;51.952;6.146;2023-03-04T08:05:04;102415.75;;;5.64;100.00
29909;BME280;36247;51.952;6.146;2023-03-04T08:07:29;102412.16;;;5.62;100.00
29909;BME280;36247;51.952;6.146;2023-03-04T08:09:55;102417.22;;;5.59;100.00
29909;BME280;36247;51.952;6.146;2023-03-04T08:12:21;102421.03;;;5.64;100.00
29909;BME280;36247;51.952;6.146;2023-03-04T08:14:48;102421.28;;;5.54;100.00
29909;BME280;36247;51.952;6.146;2023-03-04T08:17:14;102426.94;;;5.60;100.00
29909;BME280;36247;51.952;6.146;2023-03-04T08:19:40;102419.59;;;5.54;100.00
29909;BME280;36247;51.952;6.146;2023-03-04T08:22:05;102422.31;;;5.71;100.00
29909;BME280;36247;51.952;6.146;2023-03-04T08:24:31;102423.66;;;5.64;100.00
29909;BME280;36247;51.952;6.146;2023-03-04T08:26:57;102424.09;;;5.72;100.00
29909;BME280;36247;51.952;6.146;2023-03-04T08:29:24;102428.38;;;5.85;100.00
29909;BME280;36247;51.952;6.146;2023-03-04T08:31:51;102424.50;;;5.78;100.00
29909;BME280;36247;51.952;6.146;2023-03-04T08:34:22;102425.75;;;5.85;100.00
29909;BME280;36247;51.952;6.146;2023-03-04T08:36:48;102435.63;;;5.89;100.00
29909;BME280;36247;51.952;6.146;2023-03-04T08:39:15;102434.75;;;6.03;100.00
29909;BME280;36247;51.952;6.146;2023-03-04T08:41:42;102430.31;;;6.02;100.00
29909;BME280;36247;51.952;6.146;2023-03-04T08:44:08;102436.28;;;5.99;100.00
29909;BME280;36247;51.952;6.146;2023-03-04T08:46:39;102434.84;;;6.05;100.00
29909;BME280;36247;51.952;6.146;2023-03-04T08:49:06;102435.31;;;5.97;100.00
29909;BME280;36247;51.952;6.146;2023-03-04T08:51:32;102427.28;;;5.96;100.00
29909;BME280;36247;51.952;6.146;2023-03-04T08:54:03;102432.94;;;6.02;100.00
29909;BME280;36247;51.952;6.146;2023-03-04T08:56:29;102432.66;;;5.97;100.00
29909;BME280;36247;51.952;6.146;2023-03-04T08:58:55;102428.38;;;6.14;100.00
29909;BME280;36247;51.952;6.146;2023-03-04T09:01:20;102427.09;;;6.23;100.00
29909;BME280;36247;51.952;6.146;2023-03-04T09:03:45;102423.66;;;6.40;100.00
29909;BME280;36247;51.952;6.146;2023-03-04T09:06:15;102425.38;;;6.23;100.00
29909;BME280;36247;51.952;6.146;2023-03-04T09:08:41;102427.13;;;6.08;100.00
29909;BME280;36247;51.952;6.146;2023-03-04T09:11:07;102432.34;;;6.38;100.00
29909;BME280;36247;51.952;6.146;2023-03-04T09:13:32;102430.28;;;6.17;100.00
29909;BME280;36247;51.952;6.146;2023-03-04T09:15:58;102431.09;;;6.16;100.00
29909;BME280;36247;51.952;6.146;2023-03-04T09:18:25;102437.53;;;5.91;100.00
29909;BME280;36247;51.952;6.146;2023-03-04T09:20:51;102431.84;;;5.98;100.00
29909;BME280;36247;51.952;6.146;2023-03-04T09:23:17;102431.75;;;5.97;100.00
29909;BME280;36247;51.952;6.146;2023-03-04T09:25:43;102420.47;;;6.14;100.00
29909;BME280;36247;51.952;6.146;2023-03-04T09:28:11;102428.88;;;6.24;100.00
29909;BME280;36247;51.952;6.146;2023-03-04T09:30:37;102423.56;;;6.07;100.00
29909;BME280;36247;51.952;6.146;2023-03-04T09:33:02;102423.59;;;6.39;100.00
29909;BME280;36247;51.952;6.146;2023-03-04T09:35:28;102423.50;;;6.37;100.00
29909;BME280;36247;51.952;6.146;2023-03-04T09:37:57;102416.03;;;6.45;100.00
29909;BME280;36247;51.952;6.146;2023-03-04T09:40:26;102406.63;;;6.65;100.00
29909;BME280;36247;51.952;6.146;2023-03-04T09:42:55;102409.41;;;6.51;100.00
29909;BME280;36247;51.952;6.146;2023-03-04T09:45:27;102407.75;;;6.53;100.00
29909;BME280;36247;51.952;6.146;2023-03-04T09:47:54;102414.69;;;6.68;100.00
29909;BME280;36247;51.952;6.146;2023-03-04T09:50:21;102403.94;;;6.32;100.00
29909;BME280;36247;51.952;6.146;2023-03-04T09:52:53;102406.84;;;6.22;100.00
29909;BME280;36247;51.952;6.146;2023-03-04T09:55:39;102410.03;;;6.47;100.00
29909;BME280;36247;51.952;6.146;2023-03-04T10:01:02;102396.50;;;7.56;100.00
29909;BME280;36247;51.952;6.146;2023-03-04T10:03:48;102390.97;;;7.34;100.00
29909;BME280;36247;51.952;6.146;2023-03-04T10:06:18;102388.28;;;6.99;100.00
29909;BME280;36247;51.952;6.146;2023-03-04T10:11:39;102396.44;;;6.87;100.00
29909;BME280;36247;51.952;6.146;2023-03-04T10:16:52;102390.34;;;7.05;100.00
29909;BME280;36247;51.952;6.146;2023-03-04T10:21:48;102381.72;;;7.42;100.00
29909;BME280;36247;51.952;6.146;2023-03-04T10:24:19;102377.47;;;7.28;100.00
29909;BME280;36247;51.952;6.146;2023-03-04T10:26:51;102379.16;;;7.44;100.00
29909;BME280;36247;51.952;6.146;2023-03-04T10:29:20;102379.31;;;7.47;100.00
29909;BME280;36247;51.952;6.146;2023-03-04T10:31:47;102376.41;;;7.07;100.00
29909;BME280;36247;51.952;6.146;2023-03-04T10:34:15;102375.28;;;6.86;100.00
29909;BME280;36247;51.952;6.146;2023-03-04T10:41:55;102380.06;;;6.93;100.00
29909;BME280;36247;51.952;6.146;2023-03-04T10:44:21;102377.50;;;6.78;100.00
29909;BME280;36247;51.952;6.146;2023-03-04T10:46:48;102387.53;;;6.69;100.00
29909;BME280;36247;51.952;6.146;2023-03-04T10:49:16;102385.47;;;6.63;100.00
29909;BME280;36247;51.952;6.146;2023-03-04T10:54:25;102387.78;;;6.57;100.00
29909;BME280;36247;51.952;6.146;2023-03-04T10:59:43;102388.25;;;6.50;100.00
29909;BME280;36247;51.952;6.146;2023-03-04T11:02:19;102383.53;;;6.44;100.00
29909;BME280;36247;51.952;6.146;2023-03-04T11:05:37;102377.09;;;6.70;100.00
29909;BME280;36247;51.952;6.146;2023-03-04T11:08:01;102363.50;;;6.96;100.00
29909;BME280;36247;51.952;6.146;2023-03-04T11:13:11;102368.34;;;6.88;100.00
29909;BME280;36247;51.952;6.146;2023-03-04T11:21:01;102342.13;;;9.70;100.00
29909;BME280;36247;51.952;6.146;2023-03-04T11:23:39;102339.97;;;8.80;100.00
29909;BME280;36247;51.952;6.146;2023-03-04T11:26:11;102348.72;;;8.04;100.00
29909;BME280;36247;51.952;6.146;2023-03-04T11:32:26;102359.06;;;7.82;100.00
29909;BME280;36247;51.952;6.146;2023-03-04T11:36:55;102355.22;;;7.06;100.00
29909;BME280;36247;51.952;6.146;2023-03-04T11:39:43;102359.88;;;6.94;100.00
29909;BME280;36247;51.952;6.146;2023-03-04T11:42:24;102353.44;;;7.05;100.00
29909;BME280;36247;51.952;6.146;2023-03-04T11:44:53;102356.41;;;7.11;100.00
29909;BME280;36247;51.952;6.146;2023-03-04T11:47:35;102353.19;;;7.17;100.00
29909;BME280;36247;51.952;6.146;2023-03-04T11:50:26;102346.44;;;7.40;100.00
29909;BME280;36247;51.952;6.146;2023-03-04T12:06:34;102309.91;;;8.57;100.00
29909;BME280;36247;51.952;6.146;2023-03-04T12:20:09;102318.44;;;7.42;100.00
29909;BME280;36247;51.952;6.146;2023-03-04T12:22:44;102313.34;;;7.11;100.00
29909;BME280;36247;51.952;6.146;2023-03-04T12:25:33;102312.84;;;6.85;100.00
29909;BME280;36247;51.952;6.146;2023-03-04T12:28:17;102307.22;;;7.12;100.00
29909;BME280;36247;51.952;6.146;2023-03-04T12:44:20;102295.69;;;7.80;100.00
29909;BME280;36247;51.952;6.146;2023-03-04T12:49:59;102297.22;;;7.22;100.00
29909;BME280;36247;51.952;6.146;2023-03-04T12:52:48;102293.25;;;6.96;100.00
29909;BME280;36247;51.952;6.146;2023-03-04T12:55:22;102293.44;;;6.83;100.00
29909;BME280;36247;51.952;6.146;2023-03-04T12:57:54;102293.91;;;6.92;100.00
29909;BME280;36247;51.952;6.146;2023-03-04T13:06:09;102283.69;;;6.98;100.00
29909;BME280;36247;51.952;6.146;2023-03-04T13:11:09;102273.94;;;6.96;100.00
29909;BME280;36247;51.952;6.146;2023-03-04T13:14:07;102257.94;;;7.27;100.00
29909;BME280;36247;51.952;6.146;2023-03-04T13:16:51;102260.44;;;7.42;100.00
29909;BME280;36247;51.952;6.146;2023-03-04T13:19:44;102259.50;;;7.59;100.00
29909;BME280;36247;51.952;6.146;2023-03-04T13:24:56;102241.78;;;7.93;100.00
29909;BME280;36247;51.952;6.146;2023-03-04T13:41:14;102234.72;;;7.74;100.00
29909;BME280;36247;51.952;6.146;2023-03-04T13:43:41;102236.13;;;7.67;100.00
29909;BME280;36247;51.952;6.146;2023-03-04T13:53:42;102240.38;;;7.28;100.00
29909;BME280;36247;51.952;6.146;2023-03-04T13:56:20;102243.53;;;7.20;100.00
29909;BME280;36247;51.952;6.146;2023-03-04T13:58:52;102231.94;;;7.17;100.00
29909;BME280;36247;51.952;6.146;2023-03-04T14:01:28;102238.63;;;7.10;100.00
29909;BME280;36247;51.952;6.146;2023-03-04T14:03:56;102235.00;;;7.08;100.00
29909;BME280;36247;51.952;6.146;2023-03-04T14:06:24;102243.81;;;7.09;100.00
29909;BME280;36247;51.952;6.146;2023-03-04T14:08:51;102237.34;;;7.02;100.00
29909;BME280;36247;51.952;6.146;2023-03-04T14:13:48;102233.00;;;7.20;100.00
29909;BME280;36247;51.952;6.146;2023-03-04T14:16:20;102244.34;;;7.19;100.00
29909;BME280;36247;51.952;6.146;2023-03-04T14:19:02;102227.72;;;7.20;100.00
29909;BME280;36247;51.952;6.146;2023-03-04T14:21:29;102220.88;;;7.24;100.00
29909;BME280;36247;51.952;6.146;2023-03-04T14:24:05;102223.81;;;7.48;100.00
29909;BME280;36247;51.952;6.146;2023-03-04T14:26:32;102198.88;;;10.32;100.00
29909;BME280;36247;51.952;6.146;2023-03-04T14:28:59;102212.56;;;9.09;100.00
29909;BME280;36247;51.952;6.146;2023-03-04T14:31:28;102209.84;;;8.06;100.00
29909;BME280;36247;51.952;6.146;2023-03-04T14:33:56;102215.66;;;7.62;100.00
29909;BME280;36247;51.952;6.146;2023-03-04T14:36:32;102202.69;;;7.66;100.00
29909;BME280;36247;51.952;6.146;2023-03-04T14:39:02;102207.28;;;7.70;100.00
29909;BME280;36247;51.952;6.146;2023-03-04T14:41:33;102213.66;;;7.38;100.00
29909;BME280;36247;51.952;6.146;2023-03-04T14:46:47;102198.09;;;7.62;100.00
29909;BME280;36247;51.952;6.146;2023-03-04T14:49:14;102206.75;;;7.59;100.00
29909;BME280;36247;51.952;6.146;2023-03-04T14:51:45;102196.00;;;7.37;100.00